Fukui, Japan

8:04 PM JST on February 10, 2016 (GMT +0900)
Komatsu | | Change Station
CLOSE
Current Station
Airport
Location: Komatsu AB,
Elevation: 30 ft
Nearby Weather Stations

Elev 30 ft 36.39 °N, 136.41 °E | Updated 1 hour ago

Mostly Cloudy
Mostly Cloudy
39 °F
Feels Like 34 °F
N
7
Wind Variable Wind from NNE

Today
High -- | Low -- °F
--% Chance of Precip.
Yesterday
High -- | Low -- °F
Precip. -- in
Pressure 30.36 in
Visibility 6.2 miles
Clouds Few 3000 ft
Mostly Cloudy 5000 ft
Windchill 34 °F
Dew Point 19 °F
Humidity 45%
Rainfall 0.00 in
Snow Depth Not available.
6:49 AM 5:30 PM
Waxing Crescent, 5% visible
METAR RJNK 101000Z 02006KT 9999 FEW030 BKN050 04/M07 Q1028
Pressure 30.36 in
Visibility 6.2 miles
Clouds Few 3000 ft
Mostly Cloudy 5000 ft
Windchill 34 °F
Dew Point 19 °F
Humidity 45%
Rainfall 0.00 in
Snow Depth Not available.
6:49 AM 5:30 PM
Waxing Crescent, 5% visible
METAR RJNK 101000Z 02006KT 9999 FEW030 BKN050 04/M07 Q1028

10-Day Weather Forecast

No radar image for this location.
×

Almanac

Astronomy

Feb. 10, 2016 Rise Set
Actual Time
Civil Twilight
Nautical Twilight
Astronomical Twilight
Moon
Length of Visible Light
Length of Day
Tomorrow will be .
, % of the Moon is Illuminated

Today's Extremes

Country Highs Country Lows

Community

WunderPhotos

Upload Photos

1,891,830 photos uploaded!

WunderBlog® & News

Nearby

Air Quality

  Air Quality AQ Index Pollutant
Not available.

Snow Depth

Station Depth Elevation

Earthquake Activity

City Distance Mag. Time & Date
Minimum magnitude displayed is 2.5.

Coastal Water Temperatures

Place Temperature

Stations

Nearby Weather Stations

Station Location Temp. Windchill Dew Point Humidity Wind Precip. Elev Updated Type